sensor_id;sensor_type;location;lat;lon;timestamp;P1;durP1;ratioP1;P2;durP2;ratioP2
11131;SDS011;5620;53.570;9.718;2022-08-18T00:01:06;7.78;;;4.15;;
11131;SDS011;5620;53.570;9.718;2022-08-18T00:03:33;4.90;;;4.47;;
11131;SDS011;5620;53.570;9.718;2022-08-18T00:05:59;7.67;;;4.03;;
11131;SDS011;5620;53.570;9.718;2022-08-18T00:08:25;12.52;;;4.95;;
11131;SDS011;5620;53.570;9.718;2022-08-18T00:10:50;9.47;;;4.53;;
11131;SDS011;5620;53.570;9.718;2022-08-18T00:13:16;17.53;;;4.97;;
11131;SDS011;5620;53.570;9.718;2022-08-18T00:15:41;4.82;;;4.38;;
11131;SDS011;5620;53.570;9.718;2022-08-18T00:18:07;6.20;;;4.30;;
11131;SDS011;5620;53.570;9.718;2022-08-18T00:20:32;9.10;;;4.63;;
11131;SDS011;5620;53.570;9.718;2022-08-18T00:22:58;6.78;;;4.63;;
11131;SDS011;5620;53.570;9.718;2022-08-18T00:25:23;4.17;;;3.87;;
11131;SDS011;5620;53.570;9.718;2022-08-18T00:27:49;9.30;;;3.93;;
11131;SDS011;5620;53.570;9.718;2022-08-18T00:30:16;5.30;;;3.50;;
11131;SDS011;5620;53.570;9.718;2022-08-18T00:32:46;4.18;;;3.88;;
11131;SDS011;5620;53.570;9.718;2022-08-18T00:35:15;4.50;;;3.63;;
11131;SDS011;5620;53.570;9.718;2022-08-18T00:37:44;4.20;;;3.13;;
11131;SDS011;5620;53.570;9.718;2022-08-18T00:40:11;7.68;;;3.70;;
11131;SDS011;5620;53.570;9.718;2022-08-18T00:42:43;10.50;;;3.53;;
11131;SDS011;5620;53.570;9.718;2022-08-18T00:45:19;9.55;;;3.05;;
11131;SDS011;5620;53.570;9.718;2022-08-18T00:47:49;3.13;;;2.92;;
11131;SDS011;5620;53.570;9.718;2022-08-18T00:50:17;3.30;;;3.00;;
11131;SDS011;5620;53.570;9.718;2022-08-18T00:52:54;6.25;;;3.03;;
11131;SDS011;5620;53.570;9.718;2022-08-18T00:55:22;5.67;;;2.97;;
11131;SDS011;5620;53.570;9.718;2022-08-18T00:57:50;2.72;;;2.53;;
11131;SDS011;5620;53.570;9.718;2022-08-18T01:00:18;2.92;;;2.70;;
11131;SDS011;5620;53.570;9.718;2022-08-18T01:02:47;9.45;;;2.83;;
11131;SDS011;5620;53.570;9.718;2022-08-18T01:05:19;4.00;;;3.10;;
11131;SDS011;5620;53.570;9.718;2022-08-18T01:07:48;3.13;;;2.83;;
11131;SDS011;5620;53.570;9.718;2022-08-18T01:10:15;5.32;;;3.15;;
11131;SDS011;5620;53.570;9.718;2022-08-18T01:12:46;3.17;;;2.97;;
11131;SDS011;5620;53.570;9.718;2022-08-18T01:15:18;3.88;;;3.58;;
11131;SDS011;5620;53.570;9.718;2022-08-18T01:17:46;5.03;;;3.50;;
11131;SDS011;5620;53.570;9.718;2022-08-18T01:20:14;4.80;;;3.33;;
11131;SDS011;5620;53.570;9.718;2022-08-18T01:25:12;4.73;;;4.10;;
11131;SDS011;5620;53.570;9.718;2022-08-18T01:27:39;9.50;;;3.75;;
11131;SDS011;5620;53.570;9.718;2022-08-18T01:30:06;4.65;;;4.30;;
11131;SDS011;5620;53.570;9.718;2022-08-18T01:32:34;5.20;;;4.10;;
11131;SDS011;5620;53.570;9.718;2022-08-18T01:35:00;6.70;;;4.90;;
11131;SDS011;5620;53.570;9.718;2022-08-18T01:37:26;5.95;;;3.88;;
11131;SDS011;5620;53.570;9.718;2022-08-18T01:39:53;3.75;;;3.45;;
11131;SDS011;5620;53.570;9.718;2022-08-18T01:42:19;5.78;;;3.80;;
11131;SDS011;5620;53.570;9.718;2022-08-18T01:44:45;4.80;;;3.63;;
11131;SDS011;5620;53.570;9.718;2022-08-18T01:47:13;8.13;;;3.92;;
11131;SDS011;5620;53.570;9.718;2022-08-18T01:49:39;3.80;;;3.60;;
11131;SDS011;5620;53.570;9.718;2022-08-18T01:52:05;3.67;;;3.35;;
11131;SDS011;5620;53.570;9.718;2022-08-18T01:54:30;5.30;;;4.90;;
11131;SDS011;5620;53.570;9.718;2022-08-18T01:56:57;5.97;;;5.38;;
11131;SDS011;5620;53.570;9.718;2022-08-18T01:59:23;10.52;;;5.28;;
11131;SDS011;5620;53.570;9.718;2022-08-18T02:01:49;16.77;;;5.70;;
11131;SDS011;5620;53.570;9.718;2022-08-18T02:04:15;8.68;;;6.25;;
11131;SDS011;5620;53.570;9.718;2022-08-18T02:06:41;8.45;;;6.05;;
11131;SDS011;5620;53.570;9.718;2022-08-18T02:09:07;5.77;;;5.27;;
11131;SDS011;5620;53.570;9.718;2022-08-18T02:11:33;9.97;;;6.10;;
11131;SDS011;5620;53.570;9.718;2022-08-18T02:13:58;5.97;;;5.57;;
11131;SDS011;5620;53.570;9.718;2022-08-18T02:16:25;6.30;;;5.65;;
11131;SDS011;5620;53.570;9.718;2022-08-18T02:18:51;21.45;;;6.72;;
11131;SDS011;5620;53.570;9.718;2022-08-18T02:21:17;9.73;;;6.40;;
11131;SDS011;5620;53.570;9.718;2022-08-18T02:23:44;19.95;;;6.85;;
11131;SDS011;5620;53.570;9.718;2022-08-18T02:26:11;16.95;;;6.65;;
11131;SDS011;5620;53.570;9.718;2022-08-18T02:28:39;11.57;;;6.13;;
11131;SDS011;5620;53.570;9.718;2022-08-18T02:31:05;9.73;;;5.95;;
11131;SDS011;5620;53.570;9.718;2022-08-18T02:33:33;10.18;;;5.95;;
11131;SDS011;5620;53.570;9.718;2022-08-18T02:35:58;7.85;;;5.90;;
11131;SDS011;5620;53.570;9.718;2022-08-18T02:38:25;6.40;;;5.87;;
11131;SDS011;5620;53.570;9.718;2022-08-18T02:40:54;13.88;;;5.95;;
11131;SDS011;5620;53.570;9.718;2022-08-18T02:43:21;8.15;;;6.15;;
11131;SDS011;5620;53.570;9.718;2022-08-18T02:45:47;7.40;;;6.75;;
11131;SDS011;5620;53.570;9.718;2022-08-18T02:48:13;9.03;;;6.07;;
11131;SDS011;5620;53.570;9.718;2022-08-18T02:50:39;7.97;;;5.55;;
11131;SDS011;5620;53.570;9.718;2022-08-18T02:53:04;7.00;;;6.33;;
11131;SDS011;5620;53.570;9.718;2022-08-18T02:55:31;8.37;;;6.23;;
11131;SDS011;5620;53.570;9.718;2022-08-18T02:57:56;8.18;;;6.38;;
11131;SDS011;5620;53.570;9.718;2022-08-18T03:00:22;6.50;;;6.10;;
11131;SDS011;5620;53.570;9.718;2022-08-18T03:02:48;8.65;;;6.50;;
11131;SDS011;5620;53.570;9.718;2022-08-18T03:05:14;6.97;;;6.25;;
11131;SDS011;5620;53.570;9.718;2022-08-18T03:07:40;11.17;;;6.43;;
11131;SDS011;5620;53.570;9.718;2022-08-18T03:10:06;8.00;;;7.20;;
11131;SDS011;5620;53.570;9.718;2022-08-18T03:12:31;11.63;;;5.80;;
11131;SDS011;5620;53.570;9.718;2022-08-18T03:14:57;6.80;;;6.30;;
11131;SDS011;5620;53.570;9.718;2022-08-18T03:17:23;11.53;;;7.03;;
11131;SDS011;5620;53.570;9.718;2022-08-18T03:19:48;7.27;;;6.00;;
11131;SDS011;5620;53.570;9.718;2022-08-18T03:22:14;8.83;;;6.07;;
11131;SDS011;5620;53.570;9.718;2022-08-18T03:24:39;11.95;;;6.00;;
11131;SDS011;5620;53.570;9.718;2022-08-18T03:27:05;6.70;;;6.30;;
11131;SDS011;5620;53.570;9.718;2022-08-18T03:29:31;7.32;;;6.65;;
11131;SDS011;5620;53.570;9.718;2022-08-18T03:32:02;6.63;;;6.10;;
11131;SDS011;5620;53.570;9.718;2022-08-18T03:34:30;7.40;;;6.80;;
11131;SDS011;5620;53.570;9.718;2022-08-18T03:36:55;7.70;;;7.07;;
11131;SDS011;5620;53.570;9.718;2022-08-18T03:39:21;8.02;;;7.43;;
11131;SDS011;5620;53.570;9.718;2022-08-18T03:41:47;7.73;;;6.97;;
11131;SDS011;5620;53.570;9.718;2022-08-18T03:44:14;9.13;;;7.60;;
11131;SDS011;5620;53.570;9.718;2022-08-18T03:46:40;15.87;;;7.60;;
11131;SDS011;5620;53.570;9.718;2022-08-18T03:49:07;11.35;;;7.20;;
11131;SDS011;5620;53.570;9.718;2022-08-18T03:51:33;8.55;;;7.07;;
11131;SDS011;5620;53.570;9.718;2022-08-18T03:54:00;11.30;;;7.00;;
11131;SDS011;5620;53.570;9.718;2022-08-18T03:56:29;10.93;;;7.60;;
11131;SDS011;5620;53.570;9.718;2022-08-18T03:58:59;8.65;;;6.60;;
11131;SDS011;5620;53.570;9.718;2022-08-18T04:01:31;8.07;;;7.13;;
11131;SDS011;5620;53.570;9.718;2022-08-18T04:03:59;8.37;;;7.67;;
11131;SDS011;5620;53.570;9.718;2022-08-18T04:06:33;14.02;;;7.45;;
11131;SDS011;5620;53.570;9.718;2022-08-18T04:09:02;8.25;;;7.65;;
11131;SDS011;5620;53.570;9.718;2022-08-18T04:11:30;10.95;;;7.30;;
11131;SDS011;5620;53.570;9.718;2022-08-18T04:13:57;8.00;;;7.20;;
11131;SDS011;5620;53.570;9.718;2022-08-18T04:16:24;10.17;;;7.50;;
11131;SDS011;5620;53.570;9.718;2022-08-18T04:18:51;12.05;;;7.97;;
11131;SDS011;5620;53.570;9.718;2022-08-18T04:21:16;9.32;;;8.02;;
11131;SDS011;5620;53.570;9.718;2022-08-18T04:23:42;10.37;;;7.93;;
11131;SDS011;5620;53.570;9.718;2022-08-18T04:26:08;9.82;;;8.57;;
11131;SDS011;5620;53.570;9.718;2022-08-18T04:28:34;14.35;;;7.78;;
11131;SDS011;5620;53.570;9.718;2022-08-18T04:31:07;10.07;;;7.97;;
11131;SDS011;5620;53.570;9.718;2022-08-18T04:33:35;12.55;;;8.02;;
11131;SDS011;5620;53.570;9.718;2022-08-18T04:36:11;7.78;;;7.03;;
11131;SDS011;5620;53.570;9.718;2022-08-18T04:38:39;12.43;;;7.40;;
11131;SDS011;5620;53.570;9.718;2022-08-18T04:41:05;8.63;;;7.80;;
11131;SDS011;5620;53.570;9.718;2022-08-18T04:43:31;9.37;;;8.03;;
11131;SDS011;5620;53.570;9.718;2022-08-18T04:45:57;13.10;;;7.47;;
11131;SDS011;5620;53.570;9.718;2022-08-18T04:48:23;9.83;;;6.83;;
11131;SDS011;5620;53.570;9.718;2022-08-18T04:50:48;11.52;;;8.07;;
11131;SDS011;5620;53.570;9.718;2022-08-18T04:53:14;12.10;;;7.93;;
11131;SDS011;5620;53.570;9.718;2022-08-18T04:55:44;9.80;;;8.97;;
11131;SDS011;5620;53.570;9.718;2022-08-18T04:58:20;15.48;;;8.00;;
11131;SDS011;5620;53.570;9.718;2022-08-18T05:00:54;8.32;;;7.63;;
11131;SDS011;5620;53.570;9.718;2022-08-18T05:03:25;9.73;;;7.38;;
11131;SDS011;5620;53.570;9.718;2022-08-18T05:05:54;11.45;;;7.22;;
11131;SDS011;5620;53.570;9.718;2022-08-18T05:08:22;13.53;;;7.63;;
11131;SDS011;5620;53.570;9.718;2022-08-18T05:10:51;11.70;;;7.60;;
11131;SDS011;5620;53.570;9.718;2022-08-18T05:13:18;23.58;;;10.05;;
11131;SDS011;5620;53.570;9.718;2022-08-18T05:15:44;22.80;;;9.23;;
11131;SDS011;5620;53.570;9.718;2022-08-18T05:18:09;12.27;;;9.27;;
11131;SDS011;5620;53.570;9.718;2022-08-18T05:20:38;15.50;;;8.73;;
11131;SDS011;5620;53.570;9.718;2022-08-18T05:23:03;16.30;;;9.35;;
11131;SDS011;5620;53.570;9.718;2022-08-18T05:25:29;10.40;;;8.63;;
11131;SDS011;5620;53.570;9.718;2022-08-18T05:27:54;8.13;;;7.32;;
11131;SDS011;5620;53.570;9.718;2022-08-18T05:30:20;13.67;;;6.97;;
11131;SDS011;5620;53.570;9.718;2022-08-18T05:32:46;7.43;;;6.73;;
11131;SDS011;5620;53.570;9.718;2022-08-18T05:35:22;6.72;;;6.00;;
11131;SDS011;5620;53.570;9.718;2022-08-18T05:38:06;14.88;;;5.93;;
11131;SDS011;5620;53.570;9.718;2022-08-18T05:40:44;8.48;;;7.45;;
11131;SDS011;5620;53.570;9.718;2022-08-18T05:43:28;7.63;;;6.00;;
11131;SDS011;5620;53.570;9.718;2022-08-18T05:45:54;6.18;;;5.78;;
11131;SDS011;5620;53.570;9.718;2022-08-18T05:48:21;12.02;;;10.93;;
11131;SDS011;5620;53.570;9.718;2022-08-18T05:50:47;7.87;;;7.10;;
11131;SDS011;5620;53.570;9.718;2022-08-18T05:53:13;7.57;;;6.10;;
11131;SDS011;5620;53.570;9.718;2022-08-18T05:55:51;10.45;;;6.55;;
11131;SDS011;5620;53.570;9.718;2022-08-18T05:58:33;7.30;;;6.70;;
11131;SDS011;5620;53.570;9.718;2022-08-18T06:01:16;7.73;;;7.23;;
11131;SDS011;5620;53.570;9.718;2022-08-18T06:03:48;8.30;;;7.50;;
11131;SDS011;5620;53.570;9.718;2022-08-18T06:06:23;9.13;;;8.35;;
11131;SDS011;5620;53.570;9.718;2022-08-18T06:09:10;8.98;;;8.30;;
11131;SDS011;5620;53.570;9.718;2022-08-18T06:12:41;14.93;;;10.00;;
11131;SDS011;5620;53.570;9.718;2022-08-18T06:15:02;15.40;;;12.33;;
11131;SDS011;5620;53.570;9.718;2022-08-18T06:21:00;15.05;;;13.68;;
11131;SDS011;5620;53.570;9.718;2022-08-18T06:26:34;28.85;;;17.58;;
11131;SDS011;5620;53.570;9.718;2022-08-18T06:34:54;35.00;;;19.95;;
11131;SDS011;5620;53.570;9.718;2022-08-18T06:37:32;31.23;;;20.02;;
11131;SDS011;5620;53.570;9.718;2022-08-18T06:40:16;42.00;;;22.08;;
11131;SDS011;5620;53.570;9.718;2022-08-18T06:42:42;45.57;;;23.63;;
11131;SDS011;5620;53.570;9.718;2022-08-18T06:45:09;50.37;;;24.90;;
11131;SDS011;5620;53.570;9.718;2022-08-18T06:47:39;39.42;;;23.30;;
11131;SDS011;5620;53.570;9.718;2022-08-18T06:50:41;31.52;;;20.83;;
11131;SDS011;5620;53.570;9.718;2022-08-18T06:53:09;37.65;;;23.20;;
11131;SDS011;5620;53.570;9.718;2022-08-18T06:55:35;33.20;;;23.27;;
11131;SDS011;5620;53.570;9.718;2022-08-18T07:00:37;33.92;;;21.75;;
11131;SDS011;5620;53.570;9.718;2022-08-18T07:03:18;34.03;;;21.30;;
11131;SDS011;5620;53.570;9.718;2022-08-18T07:05:58;31.77;;;21.40;;
11131;SDS011;5620;53.570;9.718;2022-08-18T07:11:24;36.72;;;25.40;;
11131;SDS011;5620;53.570;9.718;2022-08-18T07:13:53;33.42;;;21.05;;
11131;SDS011;5620;53.570;9.718;2022-08-18T07:16:33;36.63;;;21.10;;
11131;SDS011;5620;53.570;9.718;2022-08-18T07:19:32;31.97;;;20.03;;
11131;SDS011;5620;53.570;9.718;2022-08-18T07:24:40;23.05;;;16.90;;
11131;SDS011;5620;53.570;9.718;2022-08-18T07:32:22;19.10;;;15.33;;
11131;SDS011;5620;53.570;9.718;2022-08-18T07:34:56;24.67;;;17.48;;
11131;SDS011;5620;53.570;9.718;2022-08-18T07:37:25;22.02;;;17.15;;
11131;SDS011;5620;53.570;9.718;2022-08-18T07:39:57;19.67;;;15.70;;
11131;SDS011;5620;53.570;9.718;2022-08-18T07:42:34;24.92;;;17.05;;
11131;SDS011;5620;53.570;9.718;2022-08-18T07:45:11;26.33;;;16.00;;
11131;SDS011;5620;53.570;9.718;2022-08-18T07:53:25;28.95;;;17.35;;
11131;SDS011;5620;53.570;9.718;2022-08-18T07:56:57;27.48;;;17.67;;
11131;SDS011;5620;53.570;9.718;2022-08-18T08:02:14;28.27;;;18.17;;
11131;SDS011;5620;53.570;9.718;2022-08-18T08:10:21;25.23;;;18.20;;
11131;SDS011;5620;53.570;9.718;2022-08-18T08:13:04;37.07;;;22.67;;
11131;SDS011;5620;53.570;9.718;2022-08-18T08:22:28;22.20;;;16.60;;
11131;SDS011;5620;53.570;9.718;2022-08-18T08:28:27;20.47;;;15.17;;
11131;SDS011;5620;53.570;9.718;2022-08-18T08:31:31;23.98;;;15.55;;
11131;SDS011;5620;53.570;9.718;2022-08-18T08:37:00;22.77;;;15.90;;
11131;SDS011;5620;53.570;9.718;2022-08-18T08:39:34;24.40;;;16.15;;
11131;SDS011;5620;53.570;9.718;2022-08-18T08:44:50;21.05;;;16.05;;
11131;SDS011;5620;53.570;9.718;2022-08-18T08:47:28;19.33;;;15.55;;
11131;SDS011;5620;53.570;9.718;2022-08-18T08:50:03;23.33;;;16.42;;
11131;SDS011;5620;53.570;9.718;2022-08-18T08:55:20;20.87;;;16.53;;
11131;SDS011;5620;53.570;9.718;2022-08-18T08:57:50;27.85;;;17.13;;
11131;SDS011;5620;53.570;9.718;2022-08-18T09:00:39;26.00;;;16.45;;
11131;SDS011;5620;53.570;9.718;2022-08-18T09:06:04;19.85;;;16.35;;
11131;SDS011;5620;53.570;9.718;2022-08-18T09:11:27;24.42;;;17.15;;
11131;SDS011;5620;53.570;9.718;2022-08-18T09:24:55;25.15;;;17.40;;
11131;SDS011;5620;53.570;9.718;2022-08-18T09:27:29;25.77;;;16.60;;
11131;SDS011;5620;53.570;9.718;2022-08-18T09:30:02;23.63;;;17.15;;
11131;SDS011;5620;53.570;9.718;2022-08-18T09:33:16;22.77;;;16.95;;
11131;SDS011;5620;53.570;9.718;2022-08-18T09:38:15;27.63;;;17.42;;
11131;SDS011;5620;53.570;9.718;2022-08-18T09:40:48;20.10;;;16.88;;
11131;SDS011;5620;53.570;9.718;2022-08-18T09:46:02;27.23;;;16.10;;
11131;SDS011;5620;53.570;9.718;2022-08-18T09:48:30;20.67;;;16.90;;
11131;SDS011;5620;53.570;9.718;2022-08-18T09:53:34;22.67;;;17.17;;
11131;SDS011;5620;53.570;9.718;2022-08-18T09:56:16;23.20;;;15.63;;
11131;SDS011;5620;53.570;9.718;2022-08-18T09:59:01;19.15;;;15.60;;
11131;SDS011;5620;53.570;9.718;2022-08-18T10:06:39;17.05;;;15.25;;
11131;SDS011;5620;53.570;9.718;2022-08-18T10:09:08;19.27;;;15.60;;
11131;SDS011;5620;53.570;9.718;2022-08-18T10:11:45;23.80;;;15.20;;
11131;SDS011;5620;53.570;9.718;2022-08-18T10:14:29;19.23;;;15.55;;
11131;SDS011;5620;53.570;9.718;2022-08-18T10:20:26;19.77;;;15.98;;
11131;SDS011;5620;53.570;9.718;2022-08-18T10:22:57;18.40;;;15.57;;
11131;SDS011;5620;53.570;9.718;2022-08-18T10:25:56;22.70;;;15.30;;
11131;SDS011;5620;53.570;9.718;2022-08-18T10:31:20;22.67;;;16.08;;
11131;SDS011;5620;53.570;9.718;2022-08-18T10:39:22;16.88;;;14.27;;
11131;SDS011;5620;53.570;9.718;2022-08-18T10:44:29;17.08;;;15.27;;
11131;SDS011;5620;53.570;9.718;2022-08-18T10:46:58;19.47;;;14.87;;
11131;SDS011;5620;53.570;9.718;2022-08-18T10:49:26;15.23;;;12.50;;
11131;SDS011;5620;53.570;9.718;2022-08-18T10:52:05;18.80;;;16.35;;
11131;SDS011;5620;53.570;9.718;2022-08-18T11:00:18;14.27;;;12.83;;
11131;SDS011;5620;53.570;9.718;2022-08-18T11:02:53;16.25;;;13.48;;
11131;SDS011;5620;53.570;9.718;2022-08-18T11:05:44;17.58;;;13.80;;
11131;SDS011;5620;53.570;9.718;2022-08-18T11:08:12;17.03;;;12.37;;
11131;SDS011;5620;53.570;9.718;2022-08-18T11:10:43;14.25;;;12.13;;
11131;SDS011;5620;53.570;9.718;2022-08-18T11:13:16;13.80;;;12.32;;
11131;SDS011;5620;53.570;9.718;2022-08-18T11:18:48;25.83;;;22.73;;
11131;SDS011;5620;53.570;9.718;2022-08-18T11:22:03;29.93;;;21.43;;
11131;SDS011;5620;53.570;9.718;2022-08-18T11:29:25;16.00;;;12.65;;
11131;SDS011;5620;53.570;9.718;2022-08-18T11:32:07;14.23;;;12.68;;
11131;SDS011;5620;53.570;9.718;2022-08-18T11:37:22;12.77;;;11.48;;
11131;SDS011;5620;53.570;9.718;2022-08-18T11:40:11;14.98;;;12.43;;
11131;SDS011;5620;53.570;9.718;2022-08-18T11:45:35;13.35;;;10.88;;
11131;SDS011;5620;53.570;9.718;2022-08-18T11:53:34;13.40;;;11.02;;
11131;SDS011;5620;53.570;9.718;2022-08-18T11:58:41;11.52;;;10.45;;
11131;SDS011;5620;53.570;9.718;2022-08-18T12:01:38;11.47;;;10.27;;
11131;SDS011;5620;53.570;9.718;2022-08-18T12:09:28;9.02;;;7.90;;
11131;SDS011;5620;53.570;9.718;2022-08-18T12:12:14;7.90;;;7.15;;
11131;SDS011;5620;53.570;9.718;2022-08-18T12:14:54;7.17;;;6.53;;
11131;SDS011;5620;53.570;9.718;2022-08-18T12:17:26;11.43;;;6.75;;
11131;SDS011;5620;53.570;9.718;2022-08-18T12:19:53;8.77;;;6.45;;
11131;SDS011;5620;53.570;9.718;2022-08-18T12:22:29;5.90;;;5.40;;
11131;SDS011;5620;53.570;9.718;2022-08-18T12:24:55;8.13;;;5.53;;
11131;SDS011;5620;53.570;9.718;2022-08-18T12:27:21;4.87;;;4.47;;
11131;SDS011;5620;53.570;9.718;2022-08-18T12:29:49;6.45;;;5.32;;
11131;SDS011;5620;53.570;9.718;2022-08-18T12:32:15;5.07;;;4.60;;
11131;SDS011;5620;53.570;9.718;2022-08-18T12:34:41;4.43;;;4.07;;
11131;SDS011;5620;53.570;9.718;2022-08-18T12:37:07;5.60;;;4.90;;
11131;SDS011;5620;53.570;9.718;2022-08-18T12:39:34;6.77;;;5.20;;
11131;SDS011;5620;53.570;9.718;2022-08-18T12:42:00;6.13;;;5.10;;
11131;SDS011;5620;53.570;9.718;2022-08-18T12:44:25;6.43;;;5.50;;
11131;SDS011;5620;53.570;9.718;2022-08-18T12:46:51;5.60;;;4.63;;
11131;SDS011;5620;53.570;9.718;2022-08-18T12:49:21;5.05;;;4.57;;
11131;SDS011;5620;53.570;9.718;2022-08-18T12:51:49;9.60;;;5.00;;
11131;SDS011;5620;53.570;9.718;2022-08-18T12:54:15;5.72;;;5.20;;
11131;SDS011;5620;53.570;9.718;2022-08-18T12:56:49;8.90;;;5.65;;
11131;SDS011;5620;53.570;9.718;2022-08-18T12:59:17;6.68;;;5.18;;
11131;SDS011;5620;53.570;9.718;2022-08-18T13:01:42;7.33;;;5.57;;
11131;SDS011;5620;53.570;9.718;2022-08-18T13:04:08;28.87;;;23.87;;
11131;SDS011;5620;53.570;9.718;2022-08-18T13:06:35;11.70;;;9.23;;
11131;SDS011;5620;53.570;9.718;2022-08-18T13:09:03;6.90;;;6.38;;
11131;SDS011;5620;53.570;9.718;2022-08-18T13:11:28;6.20;;;5.60;;
11131;SDS011;5620;53.570;9.718;2022-08-18T13:13:54;7.45;;;6.75;;
11131;SDS011;5620;53.570;9.718;2022-08-18T13:16:19;6.37;;;5.90;;
11131;SDS011;5620;53.570;9.718;2022-08-18T13:18:45;7.00;;;6.30;;
11131;SDS011;5620;53.570;9.718;2022-08-18T13:21:11;5.73;;;5.17;;
11131;SDS011;5620;53.570;9.718;2022-08-18T13:23:38;4.93;;;4.07;;
11131;SDS011;5620;53.570;9.718;2022-08-18T13:26:05;4.80;;;3.97;;
11131;SDS011;5620;53.570;9.718;2022-08-18T13:28:33;8.35;;;4.55;;
11131;SDS011;5620;53.570;9.718;2022-08-18T13:30:59;4.90;;;4.53;;
11131;SDS011;5620;53.570;9.718;2022-08-18T13:33:25;6.25;;;5.30;;
11131;SDS011;5620;53.570;9.718;2022-08-18T13:35:51;8.90;;;8.13;;
11131;SDS011;5620;53.570;9.718;2022-08-18T13:38:17;9.00;;;8.20;;
11131;SDS011;5620;53.570;9.718;2022-08-18T13:40:43;8.77;;;7.47;;
11131;SDS011;5620;53.570;9.718;2022-08-18T13:43:09;10.30;;;9.37;;
11131;SDS011;5620;53.570;9.718;2022-08-18T13:45:35;9.23;;;8.43;;
11131;SDS011;5620;53.570;9.718;2022-08-18T13:48:01;8.40;;;7.70;;
11131;SDS011;5620;53.570;9.718;2022-08-18T13:50:26;10.15;;;9.30;;
11131;SDS011;5620;53.570;9.718;2022-08-18T13:52:52;9.57;;;8.70;;
11131;SDS011;5620;53.570;9.718;2022-08-18T13:55:18;10.05;;;8.15;;
11131;SDS011;5620;53.570;9.718;2022-08-18T13:57:44;10.27;;;8.47;;
11131;SDS011;5620;53.570;9.718;2022-08-18T14:00:10;8.90;;;6.97;;
11131;SDS011;5620;53.570;9.718;2022-08-18T14:02:36;8.45;;;6.85;;
11131;SDS011;5620;53.570;9.718;2022-08-18T14:05:01;8.67;;;7.97;;
11131;SDS011;5620;53.570;9.718;2022-08-18T14:07:27;7.05;;;6.22;;
11131;SDS011;5620;53.570;9.718;2022-08-18T14:09:53;8.10;;;6.37;;
11131;SDS011;5620;53.570;9.718;2022-08-18T14:12:19;10.53;;;7.77;;
11131;SDS011;5620;53.570;9.718;2022-08-18T14:14:46;7.32;;;6.75;;
11131;SDS011;5620;53.570;9.718;2022-08-18T14:17:12;8.45;;;7.85;;
11131;SDS011;5620;53.570;9.718;2022-08-18T14:19:37;7.47;;;6.60;;
11131;SDS011;5620;53.570;9.718;2022-08-18T14:22:03;6.53;;;5.90;;
11131;SDS011;5620;53.570;9.718;2022-08-18T14:24:29;8.48;;;6.82;;
11131;SDS011;5620;53.570;9.718;2022-08-18T14:26:55;7.65;;;7.05;;
11131;SDS011;5620;53.570;9.718;2022-08-18T14:29:21;10.30;;;6.20;;
11131;SDS011;5620;53.570;9.718;2022-08-18T14:31:47;11.93;;;8.53;;
11131;SDS011;5620;53.570;9.718;2022-08-18T14:34:12;9.80;;;8.48;;
11131;SDS011;5620;53.570;9.718;2022-08-18T14:36:38;8.67;;;7.77;;
11131;SDS011;5620;53.570;9.718;2022-08-18T14:39:03;8.43;;;7.20;;
11131;SDS011;5620;53.570;9.718;2022-08-18T14:41:29;6.65;;;6.05;;
11131;SDS011;5620;53.570;9.718;2022-08-18T14:43:56;7.40;;;5.03;;
11131;SDS011;5620;53.570;9.718;2022-08-18T14:46:22;6.32;;;5.00;;
11131;SDS011;5620;53.570;9.718;2022-08-18T14:48:47;9.90;;;5.40;;
11131;SDS011;5620;53.570;9.718;2022-08-18T14:51:13;6.68;;;4.95;;
11131;SDS011;5620;53.570;9.718;2022-08-18T14:53:39;7.83;;;6.10;;
11131;SDS011;5620;53.570;9.718;2022-08-18T14:56:05;6.93;;;4.60;;
11131;SDS011;5620;53.570;9.718;2022-08-18T14:58:30;9.60;;;5.90;;
11131;SDS011;5620;53.570;9.718;2022-08-18T15:00:58;9.57;;;5.50;;
11131;SDS011;5620;53.570;9.718;2022-08-18T15:03:27;5.50;;;4.88;;
11131;SDS011;5620;53.570;9.718;2022-08-18T15:05:54;5.03;;;4.53;;
11131;SDS011;5620;53.570;9.718;2022-08-18T15:08:20;4.13;;;3.73;;
11131;SDS011;5620;53.570;9.718;2022-08-18T15:10:46;5.63;;;3.63;;
11131;SDS011;5620;53.570;9.718;2022-08-18T15:13:12;6.97;;;3.85;;
11131;SDS011;5620;53.570;9.718;2022-08-18T15:15:38;5.17;;;4.23;;
11131;SDS011;5620;53.570;9.718;2022-08-18T15:18:04;5.63;;;3.80;;
11131;SDS011;5620;53.570;9.718;2022-08-18T15:20:29;4.60;;;3.23;;
11131;SDS011;5620;53.570;9.718;2022-08-18T15:23:02;3.78;;;3.42;;
11131;SDS011;5620;53.570;9.718;2022-08-18T15:25:28;4.00;;;3.20;;
11131;SDS011;5620;53.570;9.718;2022-08-18T15:27:56;6.63;;;2.43;;
11131;SDS011;5620;53.570;9.718;2022-08-18T15:30:22;5.13;;;2.65;;
11131;SDS011;5620;53.570;9.718;2022-08-18T15:32:47;3.97;;;2.70;;
11131;SDS011;5620;53.570;9.718;2022-08-18T15:35:13;5.93;;;2.60;;
11131;SDS011;5620;53.570;9.718;2022-08-18T15:37:40;3.35;;;2.70;;
11131;SDS011;5620;53.570;9.718;2022-08-18T15:42:47;3.85;;;2.67;;
11131;SDS011;5620;53.570;9.718;2022-08-18T15:45:18;4.65;;;2.70;;
11131;SDS011;5620;53.570;9.718;2022-08-18T15:47:45;5.50;;;2.20;;
11131;SDS011;5620;53.570;9.718;2022-08-18T15:50:11;3.55;;;2.30;;
11131;SDS011;5620;53.570;9.718;2022-08-18T15:53:00;4.95;;;2.58;;
11131;SDS011;5620;53.570;9.718;2022-08-18T15:55:28;4.60;;;2.90;;
11131;SDS011;5620;53.570;9.718;2022-08-18T15:57:55;6.60;;;3.00;;
11131;SDS011;5620;53.570;9.718;2022-08-18T16:00:21;7.18;;;2.60;;
11131;SDS011;5620;53.570;9.718;2022-08-18T16:02:52;6.13;;;2.88;;
11131;SDS011;5620;53.570;9.718;2022-08-18T16:05:27;4.43;;;2.90;;
11131;SDS011;5620;53.570;9.718;2022-08-18T16:07:54;7.63;;;2.77;;
11131;SDS011;5620;53.570;9.718;2022-08-18T16:10:21;7.70;;;2.63;;
11131;SDS011;5620;53.570;9.718;2022-08-18T16:12:48;5.15;;;2.58;;
11131;SDS011;5620;53.570;9.718;2022-08-18T16:15:14;5.65;;;2.85;;
11131;SDS011;5620;53.570;9.718;2022-08-18T16:17:41;6.03;;;2.80;;
11131;SDS011;5620;53.570;9.718;2022-08-18T16:20:07;6.50;;;2.40;;
11131;SDS011;5620;53.570;9.718;2022-08-18T16:22:34;4.50;;;2.22;;
11131;SDS011;5620;53.570;9.718;2022-08-18T16:24:59;5.38;;;3.08;;
11131;SDS011;5620;53.570;9.718;2022-08-18T16:27:25;5.87;;;2.80;;
11131;SDS011;5620;53.570;9.718;2022-08-18T16:29:50;6.87;;;3.43;;
11131;SDS011;5620;53.570;9.718;2022-08-18T16:32:16;6.68;;;3.28;;
11131;SDS011;5620;53.570;9.718;2022-08-18T16:34:42;15.87;;;4.37;;
11131;SDS011;5620;53.570;9.718;2022-08-18T16:37:07;8.10;;;4.50;;
11131;SDS011;5620;53.570;9.718;2022-08-18T16:39:33;12.73;;;3.87;;
11131;SDS011;5620;53.570;9.718;2022-08-18T16:41:59;13.85;;;4.00;;
11131;SDS011;5620;53.570;9.718;2022-08-18T16:44:25;7.83;;;4.20;;
11131;SDS011;5620;53.570;9.718;2022-08-18T16:46:50;9.00;;;4.03;;
11131;SDS011;5620;53.570;9.718;2022-08-18T16:49:16;10.32;;;4.13;;
11131;SDS011;5620;53.570;9.718;2022-08-18T16:51:41;7.97;;;3.50;;
11131;SDS011;5620;53.570;9.718;2022-08-18T16:54:07;6.23;;;3.87;;
11131;SDS011;5620;53.570;9.718;2022-08-18T16:56:32;4.35;;;3.95;;
11131;SDS011;5620;53.570;9.718;2022-08-18T16:58:58;6.37;;;4.43;;
11131;SDS011;5620;53.570;9.718;2022-08-18T17:01:23;6.43;;;5.77;;
11131;SDS011;5620;53.570;9.718;2022-08-18T17:03:49;5.00;;;3.97;;
11131;SDS011;5620;53.570;9.718;2022-08-18T17:06:17;8.83;;;4.33;;
11131;SDS011;5620;53.570;9.718;2022-08-18T17:08:43;7.80;;;4.22;;
11131;SDS011;5620;53.570;9.718;2022-08-18T17:11:10;5.00;;;3.73;;
11131;SDS011;5620;53.570;9.718;2022-08-18T17:13:37;10.00;;;4.10;;
11131;SDS011;5620;53.570;9.718;2022-08-18T17:16:04;8.90;;;3.83;;
11131;SDS011;5620;53.570;9.718;2022-08-18T17:18:30;8.90;;;4.55;;
11131;SDS011;5620;53.570;9.718;2022-08-18T17:20:56;6.53;;;4.80;;
11131;SDS011;5620;53.570;9.718;2022-08-18T17:23:25;13.63;;;10.52;;
11131;SDS011;5620;53.570;9.718;2022-08-18T17:25:51;8.50;;;4.73;;
11131;SDS011;5620;53.570;9.718;2022-08-18T17:28:17;4.40;;;4.10;;